Time;durP1;ratioP1;P1;durP2;ratioP2;P2;SDS_P1;SDS_P2;PMS_P1;PMS_P2;Temp;Humidity;BMP_temperature;BMP_pressure;BME280_temperature;BME280_humidity;BME280_pressure;Samples;Min_cycle;Max_cycle;Signal;HPM_P1;HPM_P2
2023/07/17 00:01:28;;;;;;;1.90;1.57;;;;;;;17.74;100.00;98050.25;18442331;32;20365;-58
2023/07/17 00:11:31;;;;;;;3.00;1.70;;;;;;;17.75;100.00;98046.41;18441785;32;20100;-58
2023/07/17 00:21:34;;;;;;;3.13;1.67;;;;;;;17.76;100.00;98061.69;18441385;32;20433;-58
2023/07/17 00:31:37;;;;;;;2.75;1.85;;;;;;;17.73;100.00;98049.47;18440463;32;20058;-58
2023/07/17 00:41:40;;;;;;;6.00;1.70;;;;;;;17.68;100.00;98057.78;18439939;32;20383;-58
2023/07/17 00:51:43;;;;;;;2.33;1.40;;;;;;;17.64;100.00;98064.16;18425581;32;20065;-58
2023/07/17 01:01:47;;;;;;;2.87;1.50;;;;;;;17.62;100.00;98068.00;18438988;32;20076;-58
2023/07/17 01:11:50;;;;;;;1.60;1.37;;;;;;;17.59;100.00;98074.06;18438129;32;20163;-58
2023/07/17 01:21:59;;;;;;;3.67;1.98;;;;;;;17.57;100.00;98078.25;18437478;32;20365;-58
2023/07/17 01:32:02;;;;;;;2.58;1.50;;;;;;;17.58;100.00;98077.12;18430747;32;20065;-58
2023/07/17 01:42:05;;;;;;;2.80;1.58;;;;;;;17.56;100.00;98079.38;18435385;32;20065;-58
2023/07/17 01:52:10;;;;;;;5.93;1.73;;;;;;;17.59;100.00;98078.75;18436080;32;20057;-58
2023/07/17 02:02:13;;;;;;;2.42;1.62;;;;;;;17.56;100.00;98080.16;18434907;32;20049;-58
2023/07/17 02:12:15;;;;;;;2.33;1.55;;;;;;;17.58;100.00;98094.34;18434356;32;20045;-58
2023/07/17 02:22:17;;;;;;;3.00;1.92;;;;;;;17.59;100.00;98070.53;18433749;32;20045;-58
2023/07/17 02:32:20;;;;;;;2.62;1.48;;;;;;;17.58;100.00;98083.41;18432974;32;20060;-58
2023/07/17 02:42:23;;;;;;;4.90;1.93;;;;;;;17.55;100.00;98081.28;18432517;32;20049;-58
2023/07/17 02:52:25;;;;;;;4.28;1.87;;;;;;;17.56;100.00;98088.37;18417730;32;20045;-58
2023/07/17 03:02:27;;;;;;;2.45;1.35;;;;;;;17.57;100.00;98081.78;18418042;32;20045;-58
2023/07/17 03:12:30;;;;;;;2.25;1.40;;;;;;;17.56;100.00;98093.84;18417728;32;20365;-58
2023/07/17 03:22:33;;;;;;;3.63;2.00;;;;;;;17.56;100.00;98096.56;18424785;32;20420;-58
2023/07/17 03:32:38;;;;;;;2.67;1.65;;;;;;;17.51;100.00;98093.13;18430676;32;20108;-58
2023/07/17 03:42:41;;;;;;;3.17;1.87;;;;;;;17.52;100.00;98108.44;18430347;32;20100;-58
2023/07/17 03:52:44;;;;;;;2.85;1.98;;;;;;;17.52;100.00;98116.63;18430275;32;20121;-58
2023/07/17 04:02:47;;;;;;;3.50;1.67;;;;;;;17.51;100.00;98121.28;18430768;32;20402;-58
2023/07/17 04:12:50;;;;;;;3.63;1.70;;;;;;;17.50;100.00;98116.94;18436505;32;20054;-58
2023/07/17 04:22:53;;;;;;;2.30;1.63;;;;;;;17.51;100.00;98131.41;18440132;32;20049;-58
2023/07/17 04:32:55;;;;;;;4.72;1.92;;;;;;;17.53;100.00;98143.66;18426701;32;20041;-58
2023/07/17 04:43:00;;;;;;;3.35;1.62;;;;;;;17.55;100.00;98155.09;18439375;32;20048;-58
2023/07/17 04:53:03;;;;;;;5.60;1.95;;;;;;;17.61;100.00;98159.38;18439422;32;20056;-58
2023/07/17 05:03:06;;;;;;;2.40;1.93;;;;;;;17.74;100.00;98154.19;18438572;32;20072;-58
2023/07/17 05:13:09;;;;;;;3.20;1.80;;;;;;;17.89;100.00;98167.53;18424256;32;20429;-58
2023/07/17 05:23:12;;;;;;;2.53;2.00;;;;;;;18.17;100.00;98159.31;18436852;32;20500;-58
2023/07/17 05:33:16;;;;;;;1.90;1.70;;;;;;;18.38;100.00;98176.09;18422676;32;20361;-58
2023/07/17 05:43:19;;;;;;;3.67;1.80;;;;;;;18.59;100.00;98175.59;18435983;32;20456;-58
2023/07/17 05:53:22;;;;;;;3.30;1.60;;;;;;;18.83;100.00;98189.00;18421336;32;20307;-58
2023/07/17 06:03:25;;;;;;;1.63;1.30;;;;;;;19.17;100.00;98184.06;18414605;32;20053;-58
2023/07/17 06:13:28;;;;;;;2.28;1.60;;;;;;;19.60;100.00;98181.53;18434428;32;20096;-58
2023/07/17 06:23:32;;;;;;;2.12;1.62;;;;;;;19.93;100.00;98197.66;18419383;32;20098;-58
2023/07/17 06:33:35;;;;;;;1.75;1.45;;;;;;;20.06;100.00;98198.66;18433766;32;20437;-58
2023/07/17 06:43:38;;;;;;;3.58;1.62;;;;;;;20.15;100.00;98215.16;18418620;32;20064;-58
2023/07/17 06:53:42;;;;;;;2.93;1.93;;;;;;;20.72;100.00;98214.25;18418354;32;20388;-58
2023/07/17 07:03:45;;;;;;;3.92;2.08;;;;;;;21.01;100.00;98225.69;18417408;32;20038;-58
2023/07/17 07:13:48;;;;;;;2.90;2.22;;;;;;;21.20;100.00;98234.44;18417276;32;20061;-58
2023/07/17 07:23:51;;;;;;;4.85;2.83;;;;;;;21.27;100.00;98245.72;18417244;32;20045;-58
2023/07/17 07:33:54;;;;;;;4.53;3.42;;;;;;;21.76;100.00;98255.66;18430821;32;20078;-58
2023/07/17 07:43:58;;;;;;;3.85;2.78;;;;;;;22.45;100.00;98260.03;18437766;32;20444;-58
2023/07/17 07:54:02;;;;;;;4.40;2.95;;;;;;;22.85;100.00;98256.00;18436388;32;20481;-58
2023/07/17 08:04:05;;;;;;;5.40;3.37;;;;;;;23.02;100.00;98261.38;18442294;32;20065;-58
2023/07/17 08:14:08;;;;;;;4.97;3.03;;;;;;;22.88;100.00;98255.31;18428083;32;20401;-58
2023/07/17 08:24:12;;;;;;;7.07;3.37;;;;;;;22.96;100.00;98259.16;18427298;32;20091;-58
2023/07/17 08:34:17;;;;;;;4.20;3.20;;;;;;;23.49;96.94;98256.72;18440547;32;20098;-58
2023/07/17 08:44:21;;;;;;;4.15;3.00;;;;;;;24.30;93.31;98272.81;18374357;32;20046;-58
2023/07/17 08:54:26;;;;;;;5.10;3.28;;;;;;;24.52;88.42;98257.72;18374207;32;20357;-58
2023/07/17 09:04:32;;;;;;;3.97;3.05;;;;;;;24.55;87.16;98268.06;18373415;32;20434;-58
2023/07/17 09:14:37;;;;;;;4.70;2.78;;;;;;;24.81;79.13;98269.66;18374049;32;20437;-58
2023/07/17 09:24:40;;;;;;;5.87;3.35;;;;;;;24.96;72.36;98266.13;18372415;32;20102;-58
2023/07/17 09:34:43;;;;;;;5.45;3.20;;;;;;;24.92;76.46;98276.28;18358921;32;20046;-58
2023/07/17 09:44:47;;;;;;;4.30;3.00;;;;;;;25.16;78.80;98257.97;18427558;32;20090;-58
2023/07/17 09:54:51;;;;;;;4.35;3.00;;;;;;;25.23;67.89;98247.13;18421799;32;20068;-58
2023/07/17 10:04:59;;;;;;;5.50;3.58;;;;;;;25.73;75.43;98252.41;18435077;32;20049;-58
2023/07/17 10:15:04;;;;;;;5.35;3.30;;;;;;;26.32;77.62;98273.66;18434409;32;20120;-58
2023/07/17 10:25:19;;;;;;;4.70;3.03;;;;;;;26.06;71.25;98256.81;18433503;32;20064;-58
2023/07/17 10:35:22;;;;;;;5.10;3.10;;;;;;;26.14;66.76;98256.59;18426796;32;20071;-58
2023/07/17 10:45:34;;;;;;;5.50;2.95;;;;;;;26.54;67.82;98251.97;18432368;32;20032;-58
2023/07/17 10:55:37;;;;;;;6.90;3.00;;;;;;;27.09;74.71;98260.28;18406024;32;20369;-58
2023/07/17 11:05:43;;;;;;;5.28;3.40;;;;;;;27.13;68.12;98254.81;18417877;32;20046;-58
2023/07/17 11:15:47;;;;;;;4.55;2.83;;;;;;;27.28;71.05;98244.78;18430692;32;20109;-59
2023/07/17 11:25:50;;;;;;;4.87;2.65;;;;;;;27.28;63.53;98248.34;18425813;32;20102;-59
2023/07/17 11:35:53;;;;;;;5.90;3.17;;;;;;;27.47;62.19;98243.97;18429827;32;20061;-59
2023/07/17 11:46:02;;;;;;;4.65;2.75;;;;;;;27.45;56.54;98236.00;18404004;32;20107;-59
2023/07/17 11:56:07;;;;;;;3.97;2.78;;;;;;;27.19;63.00;98243.03;18416740;32;20362;-59
2023/07/17 12:06:11;;;;;;;3.78;2.50;;;;;;;27.29;68.61;98229.72;18430015;32;20461;-59
2023/07/17 12:16:14;;;;;;;6.53;3.17;;;;;;;27.08;65.66;98224.56;18429512;32;20405;-59
2023/07/17 12:26:20;;;;;;;5.10;3.10;;;;;;;27.25;67.42;98221.34;18432322;32;20092;-59
2023/07/17 12:36:23;;;;;;;4.55;2.85;;;;;;;27.34;61.72;98215.53;18426751;32;20042;-59
2023/07/17 12:46:26;;;;;;;5.15;3.20;;;;;;;27.46;62.03;98198.72;18439954;32;20053;-59
2023/07/17 12:56:30;;;;;;;6.53;3.67;;;;;;;27.94;55.64;98189.97;18425656;32;20053;-59
2023/07/17 13:06:34;;;;;;;4.57;3.17;;;;;;;27.93;59.21;98193.94;18423744;32;20160;-59
2023/07/17 13:16:37;;;;;;;4.90;3.25;;;;;;;28.97;60.29;98191.00;18417775;32;20054;-59
2023/07/17 13:26:40;;;;;;;5.35;3.37;;;;;;;28.25;54.62;98188.09;18437422;32;20420;-59
2023/07/17 13:36:43;;;;;;;5.80;3.00;;;;;;;27.89;54.45;98179.19;18422479;32;20065;-58
2023/07/17 13:46:48;;;;;;;4.32;2.90;;;;;;;27.37;53.93;98176.75;18422593;32;20068;-58
2023/07/17 13:56:52;;;;;;;5.22;3.22;;;;;;;28.10;56.90;98177.94;18436356;32;20069;-59
2023/07/17 14:06:58;;;;;;;4.28;3.30;;;;;;;28.93;55.59;98179.84;18435151;32;20068;-58
2023/07/17 14:28:24;;;;;;;5.30;3.28;;;;;;;28.43;50.33;98179.19;18433801;32;20073;-58
2023/07/17 14:38:27;;;;;;;6.65;3.28;;;;;;;27.93;48.29;98179.25;18419228;32;20121;-58
2023/07/17 14:48:33;;;;;;;5.60;3.25;;;;;;;27.29;49.22;98169.44;18432653;32;20467;-58
2023/07/17 14:58:36;;;;;;;5.85;2.95;;;;;;;26.74;56.57;98169.59;18432399;32;20064;-58
2023/07/17 15:08:39;;;;;;;3.17;2.62;;;;;;;26.76;56.08;98160.91;18431502;32;20071;-58
2023/07/17 15:18:43;;;;;;;4.30;3.42;;;;;;;26.74;56.21;98161.28;18431486;32;20072;-58
2023/07/17 15:28:46;;;;;;;5.18;3.35;;;;;;;26.97;55.39;98160.53;18431005;32;20109;-59
2023/07/17 15:38:48;;;;;;;3.00;2.65;;;;;;;27.46;50.52;98162.63;18416643;32;20079;-58
2023/07/17 15:48:52;;;;;;;4.87;2.90;;;;;;;27.04;53.28;98157.91;18416660;32;20058;-58
2023/07/17 15:58:55;;;;;;;5.80;2.75;;;;;;;26.98;53.70;98159.34;18410863;32;20439;-58
2023/07/17 16:08:58;;;;;;;3.87;2.70;;;;;;;27.15;53.02;98158.88;18441499;32;20061;-58
2023/07/17 16:19:02;;;;;;;5.87;2.90;;;;;;;27.52;51.07;98163.94;18441528;32;20073;-58
2023/07/17 16:29:05;;;;;;;5.62;2.37;;;;;;;27.49;56.60;98161.91;18440804;32;20094;-58
2023/07/17 16:39:09;;;;;;;5.68;2.90;;;;;;;27.47;56.00;98163.44;18440067;32;20058;-58
2023/07/17 16:49:11;;;;;;;4.60;2.75;;;;;;;27.15;60.32;98164.44;18439810;32;20049;-58
2023/07/17 16:59:18;;;;;;;3.78;2.60;;;;;;;26.44;67.02;98175.69;18425535;32;20057;-58
2023/07/17 17:09:23;;;;;;;5.28;3.00;;;;;;;26.03;78.10;98162.13;18425015;32;20127;-58
2023/07/17 17:19:27;;;;;;;5.07;3.05;;;;;;;26.33;76.08;98177.44;18437276;32;20497;-58
2023/07/17 17:29:30;;;;;;;3.50;2.80;;;;;;;25.99;63.48;98175.06;18437634;32;20127;-58
2023/07/17 17:39:33;;;;;;;4.47;3.25;;;;;;;25.97;65.52;98180.19;18422622;32;20110;-58
2023/07/17 17:49:36;;;;;;;3.75;2.37;;;;;;;25.87;67.77;98189.03;18415224;32;20098;-58
2023/07/17 17:59:40;;;;;;;4.68;2.90;;;;;;;25.50;71.63;98189.31;18435570;32;20049;-58
2023/07/17 18:09:43;;;;;;;5.53;2.90;;;;;;;25.35;78.05;98188.97;18434905;32;20061;-58
2023/07/17 18:19:46;;;;;;;4.45;2.67;;;;;;;25.39;80.46;98191.00;18434251;32;20377;-59
2023/07/17 18:29:49;;;;;;;6.22;2.90;;;;;;;24.69;91.90;98202.16;18433418;32;20399;-58
2023/07/17 18:39:52;;;;;;;5.43;3.00;;;;;;;24.13;100.00;98211.13;18432951;32;20098;-58
2023/07/17 18:49:55;;;;;;;4.90;2.90;;;;;;;23.62;100.00;98221.66;18432551;32;20048;-58
2023/07/17 19:00:00;;;;;;;4.35;2.85;;;;;;;23.12;100.00;98220.72;18432565;32;20117;-58
2023/07/17 19:10:04;;;;;;;4.80;2.95;;;;;;;22.64;100.00;98217.44;18431655;32;20053;-58
2023/07/17 19:20:07;;;;;;;3.92;2.72;;;;;;;22.08;100.00;98225.87;18431555;32;20058;-58
2023/07/17 19:30:12;;;;;;;4.20;3.10;;;;;;;21.57;100.00;98234.84;18431255;32;20045;-58
2023/07/17 19:40:15;;;;;;;5.35;3.25;;;;;;;21.08;100.00;98239.78;18438702;32;20100;-58
2023/07/17 19:50:18;;;;;;;;;;;;;;;20.62;100.00;98247.50;18443586;32;20069;-58
2023/07/17 20:00:21;;;;;;;5.05;3.40;;;;;;;20.24;100.00;98248.94;18443484;32;19967;-58
2023/07/17 20:10:24;;;;;;;23.35;6.93;;;;;;;19.97;100.00;98248.03;18428557;32;20425;-58
2023/07/17 20:20:28;;;;;;;25.95;7.72;;;;;;;19.70;100.00;98251.78;18441721;32;20076;-58
2023/07/17 20:30:31;;;;;;;11.38;5.10;;;;;;;19.41;100.00;98266.78;18434287;32;20057;-58
2023/07/17 20:40:34;;;;;;;10.63;4.77;;;;;;;19.19;100.00;98272.31;18440207;32;20376;-58
2023/07/17 20:50:37;;;;;;;9.50;4.00;;;;;;;18.98;100.00;98270.06;18439726;32;20077;-58
2023/07/17 21:00:40;;;;;;;4.97;3.70;;;;;;;18.79;100.00;98260.03;18439632;32;20120;-58
2023/07/17 21:10:43;;;;;;;10.40;4.65;;;;;;;18.54;100.00;98269.66;18438803;32;20105;-58
2023/07/17 21:20:46;;;;;;;7.28;3.95;;;;;;;18.34;100.00;98272.84;18437938;32;20094;-58
2023/07/17 21:30:50;;;;;;;6.32;3.42;;;;;;;18.12;100.00;98271.63;18437379;32;20361;-58
2023/07/17 21:40:53;;;;;;;5.03;3.50;;;;;;;17.93;100.00;98266.28;18437064;32;20084;-58
2023/07/17 21:50:57;;;;;;;5.13;3.50;;;;;;;17.74;100.00;98269.06;18436728;32;20415;-58
2023/07/17 22:01:00;;;;;;;4.85;3.20;;;;;;;17.61;100.00;98279.69;18435152;32;20113;-58
2023/07/17 22:11:03;;;;;;;4.70;3.30;;;;;;;17.42;100.00;98277.00;18421176;32;20037;-58
2023/07/17 22:21:06;;;;;;;5.80;3.57;;;;;;;17.33;100.00;98292.47;18434441;32;20057;-58
2023/07/17 22:31:10;;;;;;;8.47;3.33;;;;;;;17.25;100.00;98293.97;18419629;32;20084;-58
2023/07/17 22:41:12;;;;;;;4.83;3.57;;;;;;;17.16;100.00;98292.22;18432875;32;20102;-58
2023/07/17 22:51:15;;;;;;;5.47;3.40;;;;;;;17.08;100.00;98282.78;18432871;32;20104;-58
2023/07/17 23:01:19;;;;;;;5.10;3.70;;;;;;;16.90;100.00;98298.88;18432263;32;20116;-58
2023/07/17 23:11:22;;;;;;;6.53;3.03;;;;;;;16.78;100.00;98284.84;18424626;32;20138;-58
2023/07/17 23:21:25;;;;;;;7.27;3.53;;;;;;;16.78;100.00;98291.09;18417838;32;20374;-58
2023/07/17 23:31:29;;;;;;;4.95;3.50;;;;;;;16.73;100.00;98296.66;18417003;32;20361;-58
2023/07/17 23:41:32;;;;;;;7.40;3.77;;;;;;;16.69;100.00;98292.88;18430666;32;20124;-58
2023/07/17 23:51:35;;;;;;;4.75;2.90;;;;;;;16.59;100.00;98287.56;18416606;32;20054;-58
